Llano, TX

9:46 AM CDT on August 21, 2017 (GMT -0500)
Llano

Weather History for KAQO - March, 2013

Change the Weather History Date:

Monday, March 4, 2013

  Actual Average (KBMQ) Record (KBMQ)
Temperature  
Mean Temperature 70 °F -  
Max Temperature 91 °F 62 °F 87 °F (2013)
Min Temperature 48 °F 42 °F 19 °F (2002)
Cooling Degree Days 4    
Growing Degree Days 20 (Base 50)    
Moisture  
Dew Point 33 °F    
Average Humidity 33    
Maximum Humidity 71    
Minimum Humidity 6    
Precipitation  
Precipitation 0.00 in - - ()
Sea Level Pressure  
Sea Level Pressure 29.81 in    
Wind  
Wind Speed 5 mph (WSW)    
Max Wind Speed 15 mph    
Max Gust Speed 25 mph    
Visibility 10 miles    
Events      
Averages and records for this station are not official NWS values.
T = Trace of Precipitation, MM = Missing Value Source: NWS Daily Summary

Daily Weather History Graph

Daily Weather History Graph

Search for Another Location

Airport or City:

Trip Planner

Search our weather history database for the weather conditions in past years. The results will help you decide how hot, cold, wet, or windy it might be!

Date:

Astronomy

Mar. 04, 2013 Rise Set
Actual Time 6:57 AM CST 6:35 PM CST
Civil Twilight 6:33 AM CST 6:59 PM CST
Nautical Twilight 6:05 AM CST 7:27 PM CST
Astronomical Twilight 5:37 AM CST 7:55 PM CST
Moon 12:52 AM CST (3/4) 11:35 AM CST (3/4)
Length of Visible Light 12h 26m
Length of Day
11h 38m
Waning Gibbous, 52% of the Moon is Illuminated
Mar 4
Waning Gibbous
Mar 4
Last Quarter
Mar 11
New
Mar 19
First Quarter
Mar 27
Full

Hourly Weather History & Observations

Time (CST) Temp. Dew Point Humidity Pressure Visibility Wind Dir Wind Speed Gust Speed Precip Events Conditions
12:15 AM 62.6 °F 35.6 °F 37% 29.90 in 10.0 mi SSW 5.8 mph - N/A   Clear
12:35 AM 60.8 °F 37.4 °F 42% 29.90 in 10.0 mi South 11.5 mph - N/A   Clear
12:55 AM 60.8 °F 37.4 °F 42% 29.89 in 10.0 mi South 8.1 mph - N/A   Clear
1:15 AM 60.8 °F 37.4 °F 42% 29.89 in 10.0 mi South 5.8 mph - N/A   Clear
1:35 AM 60.8 °F 37.4 °F 42% 29.89 in 10.0 mi South 3.5 mph - N/A   Clear
1:55 AM 60.8 °F 39.2 °F 45% 29.89 in 10.0 mi SSW 8.1 mph - N/A   Clear
2:15 AM 60.8 °F 39.2 °F 45% 29.88 in 10.0 mi SSW 10.4 mph - N/A   Clear
2:35 AM 59.0 °F 39.2 °F 48% 29.88 in 10.0 mi Calm Calm - N/A   Clear
2:55 AM 55.4 °F 37.4 °F 51% 29.87 in 10.0 mi Calm Calm - N/A   Clear
3:35 AM 55.4 °F 37.4 °F 51% 29.86 in 10.0 mi SSW 3.5 mph - N/A   Clear
3:55 AM 55.4 °F 39.2 °F 54% 29.85 in 10.0 mi Calm Calm - N/A   Clear
4:15 AM 55.4 °F 39.2 °F 54% 29.85 in 10.0 mi Calm Calm - N/A   Clear
4:55 AM 55.4 °F 39.2 °F 54% 29.85 in 10.0 mi Calm Calm - N/A   Clear
5:15 AM 55.4 °F 39.2 °F 54% 29.85 in 10.0 mi Calm Calm - N/A   Clear
5:35 AM 53.6 °F 39.2 °F 58% 29.86 in 10.0 mi Calm Calm - N/A   Clear
5:55 AM 51.8 °F 39.2 °F 62% 29.86 in 10.0 mi Calm Calm - N/A   Clear
6:15 AM 51.8 °F 39.2 °F 62% 29.86 in 10.0 mi Calm Calm - N/A   Clear
6:55 AM 53.6 °F 39.2 °F 58% 29.87 in 10.0 mi Calm Calm - N/A   Clear
7:15 AM 51.8 °F 39.2 °F 62% 29.87 in 10.0 mi Calm Calm - N/A   Clear
7:35 AM 48.2 °F 39.2 °F 71% 29.88 in 10.0 mi Calm Calm - N/A   Clear
7:55 AM 48.2 °F 39.2 °F 71% 29.87 in 10.0 mi Calm Calm - N/A   Clear
8:15 AM 51.8 °F 41.0 °F 67% 29.88 in 10.0 mi Calm Calm - N/A   Clear
8:35 AM 55.4 °F 42.8 °F 63% 29.88 in 10.0 mi Calm Calm - N/A   Clear
8:55 AM 60.8 °F 42.8 °F 52% 29.88 in 10.0 mi Calm Calm - N/A   Clear
9:15 AM 62.6 °F 42.8 °F 48% 29.89 in 10.0 mi Calm Calm - N/A   Clear
9:35 AM 64.4 °F 42.8 °F 45% 29.88 in 10.0 mi Calm Calm - N/A   Clear
9:55 AM 66.2 °F 42.8 °F 43% 29.87 in 10.0 mi South 4.6 mph - N/A   Clear
10:15 AM 69.8 °F 42.8 °F 38% 29.87 in 10.0 mi SW 5.8 mph - N/A   Clear
10:35 AM 73.4 °F 39.2 °F 29% 29.86 in 10.0 mi SW 8.1 mph - N/A   Clear
10:55 AM 77.0 °F 39.2 °F 26% 29.84 in 10.0 mi SSW 9.2 mph - N/A   Clear
11:15 AM 78.8 °F 37.4 °F 23% 29.84 in 10.0 mi West 10.4 mph - N/A   Clear
11:35 AM 80.6 °F 35.6 °F 20% 29.84 in 10.0 mi West 9.2 mph - N/A   Clear
11:55 AM 82.4 °F 35.6 °F 19% 29.83 in 10.0 mi West 9.2 mph - N/A   Clear
12:15 PM 84.2 °F 35.6 °F 18% 29.81 in 10.0 mi WSW 9.2 mph 17.3 mph N/A   Clear
12:35 PM 86.0 °F 32.0 °F 14% 29.80 in 10.0 mi West 10.4 mph - N/A   Clear
12:55 PM 86.0 °F 32.0 °F 14% 29.79 in 10.0 mi WSW 10.4 mph 17.3 mph N/A   Clear
1:15 PM 87.8 °F 32.0 °F 14% 29.77 in 10.0 mi SW 13.8 mph - N/A   Clear
1:35 PM 89.6 °F 30.2 °F 12% 29.76 in 10.0 mi West 9.2 mph 18.4 mph N/A   Partly Cloudy
1:55 PM 89.6 °F 30.2 °F 12% 29.74 in 10.0 mi West 9.2 mph - N/A   Clear
2:15 PM 89.6 °F 26.6 °F 10% 29.74 in 10.0 mi WSW 6.9 mph - N/A   Clear
2:35 PM 91.4 °F 21.2 °F 8% 29.74 in 10.0 mi West 12.7 mph 17.3 mph N/A   Partly Cloudy
2:55 PM 89.6 °F 17.6 °F 7% 29.74 in 10.0 mi West 15.0 mph 25.3 mph N/A   Clear
3:15 PM 89.6 °F 19.4 °F 8% 29.74 in 10.0 mi WNW 10.4 mph 19.6 mph N/A   Clear
3:35 PM 87.8 °F 17.6 °F 8% 29.72 in 10.0 mi WNW 12.7 mph - N/A   Clear
3:55 PM 87.8 °F 14.0 °F 6% 29.73 in 10.0 mi WNW 8.1 mph - N/A   Clear
4:15 PM 87.8 °F 15.8 °F 7% 29.72 in 10.0 mi WNW 4.6 mph - N/A   Clear
4:35 PM 87.8 °F 15.8 °F 7% 29.72 in 10.0 mi West 5.8 mph - N/A   Clear
4:55 PM 87.8 °F 17.6 °F 8% 29.72 in 10.0 mi West 5.8 mph - N/A   Clear
5:15 PM 86.0 °F 17.6 °F 8% 29.72 in 10.0 mi West 8.1 mph - N/A   Clear
5:35 PM 84.2 °F 19.4 °F 9% 29.72 in 10.0 mi Calm Calm - N/A   Clear
6:15 PM 82.4 °F 21.2 °F 10% 29.73 in 10.0 mi Calm Calm - N/A   Clear
6:35 PM 78.8 °F 26.6 °F 15% 29.73 in 10.0 mi Calm Calm - N/A   Clear
6:55 PM 77.0 °F 26.6 °F 16% 29.73 in 10.0 mi Calm Calm - N/A   Clear
7:15 PM 71.6 °F 30.2 °F 22% 29.74 in 10.0 mi Calm Calm - N/A   Clear
7:35 PM 73.4 °F 24.8 °F 16% 29.75 in 10.0 mi Calm Calm - N/A   Clear
7:55 PM 73.4 °F 28.4 °F 19% 29.76 in 10.0 mi Calm Calm - N/A   Clear
8:15 PM 71.6 °F 26.6 °F 19% 29.75 in 10.0 mi Calm Calm - N/A   Clear
8:35 PM 64.4 °F 30.2 °F 28% 29.75 in 10.0 mi Calm Calm - N/A   Clear
8:55 PM 62.6 °F 32.0 °F 32% 29.76 in 10.0 mi Calm Calm - N/A   Clear
9:15 PM 62.6 °F 30.2 °F 30% 29.76 in 10.0 mi Calm Calm - N/A   Clear
9:35 PM 57.2 °F 32.0 °F 38% 29.77 in 10.0 mi Calm Calm - N/A   Clear
9:55 PM 59.0 °F 32.0 °F 36% 29.77 in 10.0 mi Calm Calm - N/A   Clear
10:15 PM 59.0 °F 30.2 °F 34% 29.77 in 10.0 mi Calm Calm - N/A   Clear
10:35 PM 60.8 °F 30.2 °F 31% 29.78 in 10.0 mi Calm Calm - N/A   Clear
10:55 PM 57.2 °F 32.0 °F 38% 29.78 in 10.0 mi Calm Calm - N/A   Clear
11:35 PM 53.6 °F 32.0 °F 44% 29.78 in 10.0 mi Calm Calm - N/A   Clear
11:55 PM 57.2 °F 32.0 °F 38% 29.78 in 10.0 mi North 6.9 mph - N/A   Clear